Time;durP1;ratioP1;P1;durP2;ratioP2;P2;SDS_P1;SDS_P2;PMS_P1;PMS_P2;Temp;Humidity;BMP_temperature;BMP_pressure;BME280_temperature;BME280_humidity;BME280_pressure;Samples;Min_cycle;Max_cycle;Signal;HPM_P1;HPM_P2
2022/09/12 00:02:20;;;;;;;4.28;2.85;;;;;;;8.69;100.00;95717.41;5115859;28;20028;-76
2022/09/12 00:04:46;;;;;;;4.13;2.75;;;;;;;8.61;100.00;95723.13;5117072;28;20044;-76
2022/09/12 00:07:12;;;;;;;4.88;2.63;;;;;;;8.69;100.00;95720.03;5116929;28;20032;-77
2022/09/12 00:09:38;;;;;;;5.45;2.90;;;;;;;8.64;100.00;95722.63;5116482;28;20026;-76
2022/09/12 00:12:04;;;;;;;5.10;2.55;;;;;;;8.59;100.00;95714.72;5117238;28;20035;-76
2022/09/12 00:14:29;;;;;;;6.90;2.80;;;;;;;8.63;100.00;95721.03;5090408;28;20050;-79
2022/09/12 00:16:58;;;;;;;6.13;2.60;;;;;;;8.69;100.00;95720.03;5090125;28;20040;-78
2022/09/12 00:19:25;;;;;;;7.70;2.78;;;;;;;8.71;100.00;95712.72;5088100;28;20044;-78
2022/09/12 00:21:51;;;;;;;5.57;2.40;;;;;;;8.61;100.00;95708.19;5082200;28;20493;-77
2022/09/12 00:24:16;;;;;;;4.32;2.30;;;;;;;8.51;100.00;95717.81;5088197;28;20062;-78
2022/09/12 00:26:42;;;;;;;5.55;2.35;;;;;;;8.42;100.00;95705.13;5090820;28;20115;-78
2022/09/12 00:29:14;;;;;;;3.90;2.60;;;;;;;8.26;100.00;95711.28;5088695;28;20032;-78
2022/09/12 00:31:39;;;;;;;4.13;2.65;;;;;;;8.30;100.00;95701.88;5089744;28;20036;-77
2022/09/12 00:34:04;;;;;;;4.72;2.50;;;;;;;8.28;100.00;95703.97;5089407;28;20097;-78
2022/09/12 00:36:30;;;;;;;5.00;2.63;;;;;;;8.26;100.00;95700.78;5088757;28;20046;-78
2022/09/12 00:38:56;;;;;;;3.85;2.38;;;;;;;8.23;100.00;95696.03;5086904;28;20047;-77
2022/09/12 00:41:28;;;;;;;6.30;2.47;;;;;;;8.25;100.00;95699.22;5084874;28;20048;-78
2022/09/12 00:44:00;;;;;;;5.55;2.60;;;;;;;8.15;100.00;95705.94;5088525;28;20069;-78
2022/09/12 00:46:37;;;;;;;3.70;2.53;;;;;;;8.12;100.00;95695.97;5090295;28;20040;-76
2022/09/12 00:49:27;;;;;;;5.75;2.35;;;;;;;8.18;100.00;95699.41;5088550;28;20098;-77
2022/09/12 00:52:00;;;;;;;3.58;2.30;;;;;;;8.20;100.00;95693.94;5085917;28;20036;-77
2022/09/12 00:54:31;;;;;;;4.30;2.38;;;;;;;8.01;100.00;95694.28;5088529;28;20592;-77
2022/09/12 00:57:02;;;;;;;7.80;2.60;;;;;;;8.00;100.00;95686.66;5089015;28;20123;-77
2022/09/12 00:59:34;;;;;;;5.50;2.50;;;;;;;8.02;100.00;95685.38;5089796;28;20497;-76
2022/09/12 01:01:59;;;;;;;6.18;2.50;;;;;;;7.97;100.00;95683.53;5083546;28;20040;-76
2022/09/12 01:04:26;;;;;;;6.63;2.83;;;;;;;7.99;100.00;95680.66;5090047;28;20398;-77
2022/09/12 01:06:54;;;;;;;4.32;2.60;;;;;;;7.94;100.00;95672.72;5089021;28;20066;-77
2022/09/12 01:09:21;;;;;;;7.10;2.90;;;;;;;8.00;100.00;95676.97;5086398;28;20076;-77
2022/09/12 01:11:49;;;;;;;6.82;2.83;;;;;;;7.93;100.00;95679.00;5084621;28;20044;-77
2022/09/12 01:14:16;;;;;;;4.10;2.38;;;;;;;7.77;100.00;95673.63;5076903;28;20036;-77
2022/09/12 01:16:43;;;;;;;6.25;2.35;;;;;;;7.78;100.00;95667.34;5085804;28;20047;-77
2022/09/12 01:19:39;;;;;;;5.63;2.58;;;;;;;7.81;100.00;95660.81;5085222;28;20032;-77
2022/09/12 01:22:26;;;;;;;4.47;2.70;;;;;;;7.73;100.00;95662.06;5089406;28;20036;-76
2022/09/12 01:25:00;;;;;;;8.63;3.70;;;;;;;7.77;100.00;95663.16;5090206;28;20823;-76
2022/09/12 01:27:32;;;;;;;;;;;;;;;7.82;100.00;95665.03;5089673;28;20067;-77
2022/09/12 01:30:24;;;;;;;14.55;2.60;;;;;;;7.71;100.00;95661.50;5087219;28;19920;-77
2022/09/12 01:33:21;;;;;;;4.05;2.50;;;;;;;7.82;100.00;95659.00;5079167;28;20333;-77
2022/09/12 01:36:00;;;;;;;5.40;2.60;;;;;;;7.73;100.00;95656.81;5088292;28;20047;-76
2022/09/12 01:38:36;;;;;;;3.97;2.30;;;;;;;7.63;100.00;95651.50;5075984;28;20519;-76
2022/09/12 01:41:20;;;;;;;4.00;2.47;;;;;;;7.66;100.00;95647.56;5087404;28;20098;-77
2022/09/12 01:44:08;;;;;;;7.00;2.70;;;;;;;7.49;100.00;95650.28;5084534;28;20101;-77
2022/09/12 01:46:45;;;;;;;4.35;2.53;;;;;;;7.50;100.00;95646.63;5079609;28;20082;-78
2022/09/12 01:49:20;;;;;;;7.88;2.97;;;;;;;7.50;100.00;95657.09;5088624;28;20653;-77
2022/09/12 01:51:52;;;;;;;6.78;2.63;;;;;;;7.48;100.00;95648.69;5088697;28;20036;-77
2022/09/12 01:54:24;;;;;;;4.55;2.40;;;;;;;7.44;100.00;95643.97;5082780;28;20083;-77
2022/09/12 01:56:54;;;;;;;4.15;2.58;;;;;;;7.48;100.00;95638.22;5089254;28;20086;-79
2022/09/12 01:59:23;;;;;;;4.88;2.67;;;;;;;7.45;100.00;95635.03;5086736;28;20510;-78
2022/09/12 02:02:02;;;;;;;6.47;2.53;;;;;;;7.49;100.00;95639.81;5083871;28;20051;-77
2022/09/12 02:04:33;;;;;;;4.63;2.63;;;;;;;7.50;100.00;95633.53;5085630;28;20059;-78
2022/09/12 02:07:05;;;;;;;8.05;2.75;;;;;;;7.45;100.00;95635.03;5089765;28;20040;-77
2022/09/12 02:09:37;;;;;;;8.07;2.38;;;;;;;7.45;100.00;95635.03;5088831;28;20048;-79
2022/09/12 02:12:05;;;;;;;4.75;2.30;;;;;;;7.37;100.00;95632.88;5088291;28;20093;-77
2022/09/12 02:14:36;;;;;;;3.92;2.28;;;;;;;7.41;100.00;95625.31;5083607;28;20044;-78
2022/09/12 02:17:15;;;;;;;6.18;2.70;;;;;;;7.33;100.00;95616.09;5083593;28;20047;-78
2022/09/12 02:20:15;;;;;;;5.03;2.35;;;;;;;7.33;100.00;95616.09;5087388;28;20040;-78
2022/09/12 02:22:43;;;;;;;6.03;2.90;;;;;;;7.34;100.00;95616.88;5072823;28;20055;-78
2022/09/12 02:25:13;;;;;;;10.05;2.78;;;;;;;7.34;100.00;95622.91;5088148;28;20044;-77
2022/09/12 02:27:53;;;;;;;5.70;2.47;;;;;;;7.39;100.00;95617.72;5087131;28;20075;-76
2022/09/12 02:30:21;;;;;;;6.40;2.55;;;;;;;7.31;100.00;95612.91;5090507;28;20047;-77
2022/09/12 02:33:18;;;;;;;4.05;2.33;;;;;;;7.26;100.00;95615.47;5092949;28;20445;-76
2022/09/12 02:35:59;;;;;;;3.65;2.30;;;;;;;7.21;100.00;95607.56;5076980;28;20052;-77
2022/09/12 02:38:39;;;;;;;3.50;2.22;;;;;;;7.20;100.00;95608.63;5086452;28;20124;-76
2022/09/12 02:41:06;;;;;;;4.10;2.70;;;;;;;7.15;100.00;95608.56;5090399;28;20036;-77
2022/09/12 02:43:31;;;;;;;6.30;2.20;;;;;;;7.17;100.00;95606.47;5090637;28;20101;-78
2022/09/12 02:45:57;;;;;;;6.65;2.30;;;;;;;7.04;100.00;95608.44;5092643;28;20043;-77
2022/09/12 02:48:29;;;;;;;5.13;2.67;;;;;;;6.94;100.00;95603.09;5092322;28;20035;-77
2022/09/12 02:50:54;;;;;;;5.60;2.58;;;;;;;6.92;100.00;95598.09;5087445;28;20075;-78
2022/09/12 02:53:21;;;;;;;6.18;2.83;;;;;;;7.08;100.00;95609.53;5092305;28;20443;-78
2022/09/12 02:55:47;;;;;;;5.40;2.80;;;;;;;7.02;100.00;95604.47;5092332;28;20074;-77
2022/09/12 02:58:20;;;;;;;8.13;2.67;;;;;;;6.96;100.00;95595.78;5092040;28;20044;-77
2022/09/12 03:01:18;;;;;;;3.85;2.33;;;;;;;7.07;100.00;95607.94;5085363;28;20058;-77
2022/09/12 03:04:14;;;;;;;5.00;2.50;;;;;;;7.09;100.00;95600.63;5092321;28;20044;-77
2022/09/12 03:07:06;;;;;;;3.38;2.13;;;;;;;7.07;100.00;95597.47;5080806;28;20052;-77
2022/09/12 03:09:56;;;;;;;5.72;2.75;;;;;;;6.93;100.00;95604.91;5083033;28;20040;-77
2022/09/12 03:12:47;;;;;;;5.50;2.40;;;;;;;6.92;100.00;95597.28;5088707;28;20075;-77
2022/09/12 03:15:18;;;;;;;5.25;2.60;;;;;;;6.98;100.00;95596.31;5080198;28;20044;-78
2022/09/12 03:18:06;;;;;;;6.57;2.55;;;;;;;6.99;100.00;95594.50;5091547;28;20042;-77
2022/09/12 03:20:49;;;;;;;5.13;2.70;;;;;;;6.96;100.00;95595.00;5086988;28;20048;-76
2022/09/12 03:23:19;;;;;;;3.78;2.33;;;;;;;6.73;100.00;95586.34;5090074;28;20040;-77
2022/09/12 03:25:55;;;;;;;6.03;2.50;;;;;;;6.75;100.00;95598.16;5089084;28;20043;-77
2022/09/12 03:28:21;;;;;;;3.78;2.25;;;;;;;6.78;100.00;95588.22;5090274;28;20576;-77
2022/09/12 03:30:50;;;;;;;7.18;2.70;;;;;;;6.80;100.00;95596.63;5085990;28;20045;-77
2022/09/12 03:33:18;;;;;;;8.73;2.67;;;;;;;6.82;100.00;95595.34;5086851;28;20044;-77
2022/09/12 03:35:45;;;;;;;11.95;2.60;;;;;;;6.89;100.00;95595.16;5090013;28;20040;-77
2022/09/12 03:38:12;;;;;;;8.07;2.38;;;;;;;6.81;100.00;95587.72;5089093;28;20041;-77
2022/09/12 03:40:38;;;;;;;4.07;2.35;;;;;;;6.62;100.00;95595.09;5090781;28;20044;-76
2022/09/12 03:43:05;;;;;;;3.55;2.30;;;;;;;6.68;100.00;95594.91;5084977;28;20041;-77
2022/09/12 03:45:34;;;;;;;3.92;2.30;;;;;;;6.71;100.00;95599.66;5090610;28;20040;-77
2022/09/12 03:48:00;;;;;;;4.47;2.42;;;;;;;6.68;100.00;95591.50;5091307;28;20115;-77
2022/09/12 03:50:26;;;;;;;9.57;2.60;;;;;;;6.59;100.00;95585.91;5090753;28;20123;-77
2022/09/12 03:52:52;;;;;;;13.73;2.63;;;;;;;6.55;100.00;95590.03;5086212;28;20054;-78
2022/09/12 03:55:17;;;;;;;5.22;2.17;;;;;;;6.53;100.00;95602.56;5090626;28;20424;-77
2022/09/12 03:57:43;;;;;;;3.80;2.58;;;;;;;6.50;100.00;95592.59;5086882;28;20466;-77
2022/09/12 04:00:09;;;;;;;6.05;2.60;;;;;;;6.52;100.00;95598.34;5088056;28;20050;-78
2022/09/12 04:02:35;;;;;;;8.50;2.83;;;;;;;6.61;100.00;95599.53;5091272;28;20057;-77
2022/09/12 04:05:01;;;;;;;4.63;2.30;;;;;;;6.53;100.00;95592.09;5090079;28;20532;-77
2022/09/12 04:07:26;;;;;;;4.15;2.40;;;;;;;6.62;100.00;95590.63;5087823;28;20044;-77
2022/09/12 04:09:52;;;;;;;3.55;2.35;;;;;;;6.61;100.00;95593.50;5089704;28;20036;-77
2022/09/12 04:12:19;;;;;;;6.60;2.50;;;;;;;6.55;100.00;95595.25;5089864;28;20056;-78
2022/09/12 04:14:45;;;;;;;5.00;2.60;;;;;;;6.57;100.00;95598.44;5086413;28;20028;-77
2022/09/12 04:17:10;;;;;;;4.85;2.67;;;;;;;6.60;100.00;95597.94;5089325;28;20417;-77
2022/09/12 04:19:36;;;;;;;4.93;2.60;;;;;;;6.56;100.00;95604.69;5088298;28;20040;-77
2022/09/12 04:22:02;;;;;;;4.15;2.30;;;;;;;6.57;100.00;95603.66;5086018;28;20036;-77
2022/09/12 04:24:27;;;;;;;5.00;2.60;;;;;;;6.36;100.00;95603.34;5090281;28;20051;-77
2022/09/12 04:26:53;;;;;;;5.60;2.60;;;;;;;6.47;100.00;95598.28;5090069;28;20059;-77
2022/09/12 04:29:18;;;;;;;4.38;2.42;;;;;;;6.43;100.00;95602.41;5086420;28;20036;-77
2022/09/12 04:31:44;;;;;;;6.50;2.72;;;;;;;6.39;100.00;95597.69;5088586;28;20458;-78
2022/09/12 04:34:09;;;;;;;5.00;2.70;;;;;;;6.47;100.00;95601.69;5089213;28;20541;-77
2022/09/12 04:36:36;;;;;;;5.15;2.55;;;;;;;6.47;100.00;95608.75;5090033;28;20455;-77
2022/09/12 04:39:02;;;;;;;6.25;2.20;;;;;;;6.39;100.00;95602.09;5086812;28;20058;-78
2022/09/12 04:41:34;;;;;;;4.03;2.58;;;;;;;6.38;100.00;95601.31;5090015;28;20123;-77
2022/09/12 04:44:03;;;;;;;7.20;2.40;;;;;;;6.45;100.00;95605.56;5086009;28;20043;-76
2022/09/12 04:46:36;;;;;;;9.52;2.58;;;;;;;6.40;100.00;95598.47;5086371;28;20089;-76
2022/09/12 04:49:02;;;;;;;4.72;2.58;;;;;;;6.37;100.00;95599.72;5077708;28;20032;-76
2022/09/12 04:51:30;;;;;;;3.90;2.33;;;;;;;6.27;100.00;95594.34;5088511;28;20066;-76
2022/09/12 04:53:59;;;;;;;4.28;2.28;;;;;;;6.15;100.00;95596.25;5087867;28;20316;-76
2022/09/12 04:56:26;;;;;;;6.93;2.38;;;;;;;6.22;100.00;95591.66;5090040;28;20078;-78
2022/09/12 04:58:51;;;;;;;3.05;2.20;;;;;;;6.24;100.00;95595.63;5088048;28;20036;-77
2022/09/12 05:01:20;;;;;;;5.07;2.78;;;;;;;6.38;100.00;95598.69;5083418;28;20092;-77
2022/09/12 05:03:47;;;;;;;4.25;2.40;;;;;;;6.31;100.00;95605.13;5085359;28;20109;-77
2022/09/12 05:06:21;;;;;;;4.18;2.42;;;;;;;6.27;100.00;95604.81;5078971;28;20040;-76
2022/09/12 05:08:47;;;;;;;3.50;2.40;;;;;;;6.29;100.00;95601.94;5085635;28;20044;-77
2022/09/12 05:11:19;;;;;;;6.05;2.70;;;;;;;6.32;100.00;95602.28;5088185;28;20516;-76
2022/09/12 05:13:45;;;;;;;6.60;2.53;;;;;;;6.32;100.00;95607.50;5087394;28;20456;-78
2022/09/12 05:16:14;;;;;;;4.97;2.83;;;;;;;6.31;100.00;95611.16;5089346;28;20035;-77
2022/09/12 05:18:40;;;;;;;5.47;2.45;;;;;;;6.20;100.00;95604.19;5088175;28;20042;-77
2022/09/12 05:21:08;;;;;;;4.93;2.28;;;;;;;6.33;100.00;95601.22;5080232;28;20609;-77
2022/09/12 05:23:34;;;;;;;4.63;2.60;;;;;;;6.43;100.00;95612.88;5089065;28;20043;-77
2022/09/12 05:26:01;;;;;;;5.38;2.42;;;;;;;6.44;100.00;95609.22;5088670;28;20044;-77
2022/09/12 05:28:33;;;;;;;4.35;2.38;;;;;;;6.41;100.00;95613.91;5082802;28;20041;-77
2022/09/12 05:31:05;;;;;;;6.60;2.80;;;;;;;6.41;100.00;95616.50;5084170;28;20036;-77
2022/09/12 05:33:32;;;;;;;6.15;2.67;;;;;;;6.42;100.00;95622.53;5088981;28;20047;-76
2022/09/12 05:35:57;;;;;;;10.88;2.80;;;;;;;6.58;100.00;95620.94;5086346;28;20585;-76
2022/09/12 05:38:27;;;;;;;4.90;2.50;;;;;;;6.59;100.00;95617.28;5082446;28;20048;-77
2022/09/12 05:41:02;;;;;;;4.75;2.75;;;;;;;6.58;100.00;95616.50;5086608;28;20090;-76
2022/09/12 05:43:28;;;;;;;4.85;2.75;;;;;;;6.58;100.00;95615.72;5080911;28;20872;-76
2022/09/12 05:46:00;;;;;;;5.50;3.08;;;;;;;6.64;100.00;95619.97;5089185;28;20044;-76
2022/09/12 05:48:26;;;;;;;6.82;2.85;;;;;;;6.71;100.00;95623.19;5083848;28;20055;-77
2022/09/12 05:50:51;;;;;;;10.50;3.33;;;;;;;6.73;100.00;95618.50;5085636;28;20182;-78
2022/09/12 05:53:18;;;;;;;6.47;2.97;;;;;;;6.83;100.00;95617.06;5087444;28;20044;-77
2022/09/12 05:55:44;;;;;;;6.97;3.10;;;;;;;7.01;100.00;95614.16;5089139;28;20036;-76
2022/09/12 05:58:09;;;;;;;4.97;3.03;;;;;;;7.07;100.00;95618.41;5087615;28;20067;-76
2022/09/12 06:00:35;;;;;;;9.85;3.17;;;;;;;7.06;100.00;95616.81;5084826;28;20196;-76
2022/09/12 06:03:00;;;;;;;6.05;2.90;;;;;;;7.07;100.00;95617.63;5087813;28;20051;-76
2022/09/12 06:05:26;;;;;;;6.70;3.10;;;;;;;7.14;100.00;95622.66;5093761;28;20044;-76
2022/09/12 06:07:51;;;;;;;6.97;3.50;;;;;;;7.27;100.00;95611.84;5092386;28;20040;-76
2022/09/12 06:10:16;;;;;;;5.80;3.28;;;;;;;7.32;100.00;95619.72;5091923;28;20044;-76
2022/09/12 06:12:42;;;;;;;6.35;3.45;;;;;;;7.38;100.00;95621.34;5089047;28;20036;-77
2022/09/12 06:15:08;;;;;;;8.43;3.25;;;;;;;7.37;100.00;95617.19;5090770;28;20047;-77
2022/09/12 06:17:33;;;;;;;6.57;3.13;;;;;;;7.50;100.00;95609.94;5092623;28;20493;-79
2022/09/12 06:19:59;;;;;;;5.40;3.47;;;;;;;7.55;100.00;95602.94;5091842;28;20044;-75
2022/09/12 06:22:24;;;;;;;5.20;3.17;;;;;;;7.50;100.00;95609.94;5092061;28;20063;-76
2022/09/12 06:24:50;;;;;;;7.15;3.20;;;;;;;7.58;100.00;95614.75;5092622;28;20527;-75
2022/09/12 06:27:15;;;;;;;5.93;3.40;;;;;;;7.62;100.00;95615.84;5093109;28;20048;-77
2022/09/12 06:29:41;;;;;;;6.82;3.05;;;;;;;7.65;100.00;95617.97;5087452;28;20055;-75
2022/09/12 06:32:06;;;;;;;6.22;3.47;;;;;;;7.71;100.00;95616.97;5090952;28;20470;-76
2022/09/12 06:34:32;;;;;;;7.65;3.25;;;;;;;7.85;100.00;95611.34;5090961;28;20775;-76
2022/09/12 06:36:58;;;;;;;6.32;2.95;;;;;;;7.88;100.00;95616.09;5089924;28;20032;-75
2022/09/12 06:39:24;;;;;;;4.95;3.08;;;;;;;7.97;100.00;95609.34;5087893;28;20044;-77
2022/09/12 06:41:51;;;;;;;6.00;3.42;;;;;;;8.02;100.00;95614.63;5086722;28;20501;-75
2022/09/12 06:44:18;;;;;;;6.30;3.22;;;;;;;8.09;100.00;95617.81;5088328;28;20058;-77
2022/09/12 06:46:44;;;;;;;9.20;3.42;;;;;;;8.18;100.00;95614.75;5090362;28;20036;-78
2022/09/12 06:49:10;;;;;;;6.80;3.25;;;;;;;8.29;100.00;95622.44;5085518;28;20033;-77
2022/09/12 06:51:36;;;;;;;5.50;3.22;;;;;;;8.33;100.00;95606.97;5079965;28;20040;-77
2022/09/12 06:54:02;;;;;;;6.78;3.90;;;;;;;8.59;100.00;95615.03;5084525;28;20513;-77
2022/09/12 06:56:28;;;;;;;5.85;3.30;;;;;;;8.52;100.00;95614.47;5092232;28;20094;-77
2022/09/12 06:58:58;;;;;;;5.95;3.58;;;;;;;8.60;100.00;95616.63;5082850;28;20642;-77
2022/09/12 07:01:31;;;;;;;8.18;3.15;;;;;;;8.65;100.00;95614.03;5084829;28;20036;-78
2022/09/12 07:04:01;;;;;;;6.50;3.20;;;;;;;8.80;100.00;95616.72;5088247;28;20040;-78
2022/09/12 07:06:32;;;;;;;5.28;3.30;;;;;;;8.86;100.00;95609.66;5086953;28;20093;-79
2022/09/12 07:09:00;;;;;;;8.18;3.00;;;;;;;8.91;100.00;95622.03;5089828;28;20040;-77
2022/09/12 07:11:31;;;;;;;6.40;3.08;;;;;;;9.26;100.00;95612.72;5078172;28;20581;-76
2022/09/12 07:14:02;;;;;;;4.95;3.20;;;;;;;9.29;100.00;95618.22;5087126;28;20489;-77
2022/09/12 07:16:28;;;;;;;4.50;2.90;;;;;;;9.38;100.00;95615.09;5091562;28;20055;-75
2022/09/12 07:18:59;;;;;;;6.07;3.05;;;;;;;9.47;100.00;95614.34;5090356;28;20036;-77
2022/09/12 07:21:26;;;;;;;7.25;3.28;;;;;;;9.47;100.00;95609.09;5089005;28;20093;-76
2022/09/12 07:23:54;;;;;;;9.13;3.47;;;;;;;9.70;100.00;95618.34;5087706;28;20064;-76
2022/09/12 07:26:19;;;;;;;6.15;3.28;;;;;;;10.03;100.00;95620.75;5090353;28;20040;-76
2022/09/12 07:28:50;;;;;;;5.25;3.53;;;;;;;10.09;100.00;95619.69;5087736;28;20055;-76
2022/09/12 07:31:17;;;;;;;9.80;3.50;;;;;;;10.56;100.00;95618.63;5088885;28;20052;-75
2022/09/12 07:33:43;;;;;;;4.80;3.08;;;;;;;10.86;100.00;95619.63;5088961;28;20032;-77
2022/09/12 07:36:15;;;;;;;4.82;2.78;;;;;;;10.68;100.00;95614.91;5101651;28;20020;-74
2022/09/12 07:38:41;;;;;;;4.30;2.80;;;;;;;11.06;100.00;95625.84;5117477;28;20101;-74
2022/09/12 07:41:27;;;;;;;5.43;3.10;;;;;;;10.99;100.00;95631.41;5116215;28;20031;-75
2022/09/12 07:43:55;;;;;;;6.60;3.08;;;;;;;11.03;100.00;95626.41;5112162;28;20032;-75
2022/09/12 07:46:22;;;;;;;7.88;3.42;;;;;;;11.02;100.00;95622.97;5114248;28;20048;-74
2022/09/12 07:48:50;;;;;;;4.18;2.78;;;;;;;11.20;100.00;95626.84;5117749;28;20039;-75
2022/09/12 07:51:17;;;;;;;4.20;2.95;;;;;;;11.98;100.00;95629.09;5111333;28;20095;-74
2022/09/12 07:53:42;;;;;;;4.50;2.92;;;;;;;11.64;100.00;95625.31;5113451;28;20088;-75
2022/09/12 07:56:09;;;;;;;12.38;3.17;;;;;;;11.40;100.00;95625.19;5117002;28;20024;-77
2022/09/12 07:58:36;;;;;;;8.93;3.00;;;;;;;11.30;100.00;95630.50;5115243;28;20034;-75
2022/09/12 08:01:11;;;;;;;12.32;3.85;;;;;;;11.39;100.00;95628.88;5116394;28;20028;-76
2022/09/12 08:03:38;;;;;;;7.30;3.10;;;;;;;11.35;100.00;95622.56;5113503;28;20042;-74
2022/09/12 08:06:09;;;;;;;6.07;3.20;;;;;;;11.53;100.00;95624.59;5116429;28;20028;-75
2022/09/12 08:08:37;;;;;;;3.90;2.88;;;;;;;11.49;100.00;95618.28;5113330;28;20043;-76
2022/09/12 08:11:06;;;;;;;7.60;3.00;;;;;;;11.88;100.00;95620.16;5090604;28;20044;-76
2022/09/12 08:13:33;;;;;;;4.78;2.78;;;;;;;11.88;100.00;95624.63;5084489;28;20044;-76
2022/09/12 08:16:01;;;;;;;5.00;2.65;;;;;;;12.42;100.00;95634.28;5102595;27;20100;-77
2022/09/12 08:18:27;;;;;;;4.80;2.90;;;;;;;12.69;100.00;95632.19;5087322;28;20040;-76
2022/09/12 08:21:00;;;;;;;4.32;2.40;;;;;;;12.47;100.00;95630.81;5092670;28;20062;-77
2022/09/12 08:23:30;;;;;;;6.60;2.72;;;;;;;13.08;100.00;95628.63;5081177;28;20048;-76
2022/09/12 08:25:58;;;;;;;4.40;2.35;;;;;;;13.30;100.00;95631.53;5088935;28;20663;-78
2022/09/12 08:28:24;;;;;;;5.90;2.63;;;;;;;13.53;100.00;95634.41;5087592;28;20040;-77
2022/09/12 08:30:52;;;;;;;6.60;2.65;;;;;;;13.17;100.00;95632.19;5090066;28;20115;-77
2022/09/12 08:33:17;;;;;;;5.05;2.53;;;;;;;13.02;100.00;95624.47;5090920;28;20047;-75
2022/09/12 08:35:43;;;;;;;4.60;2.83;;;;;;;13.73;100.00;95619.34;5084502;28;20059;-75
2022/09/12 08:38:08;;;;;;;7.85;2.67;;;;;;;13.39;100.00;95633.53;5079087;28;20033;-75
2022/09/12 08:40:49;;;;;;;4.97;2.95;;;;;;;13.68;100.00;95631.56;5081751;28;20036;-81
2022/09/12 08:43:41;;;;;;;6.45;3.03;;;;;;;13.39;100.00;95628.25;5088784;28;20048;-80
2022/09/12 08:46:14;;;;;;;5.25;2.92;;;;;;;13.55;100.00;95627.00;5082747;28;20047;-76
2022/09/12 08:48:40;;;;;;;7.13;2.38;;;;;;;13.64;100.00;95625.28;5089870;28;20044;-76
2022/09/12 08:51:12;;;;;;;5.78;2.80;;;;;;;13.52;100.00;95627.56;5089949;28;20043;-77
2022/09/12 08:53:40;;;;;;;5.40;2.80;;;;;;;13.39;100.00;95622.97;5086642;28;20119;-77
2022/09/12 08:56:10;;;;;;;8.23;3.53;;;;;;;13.24;100.00;95622.06;5086259;28;20040;-78
2022/09/12 08:58:42;;;;;;;4.28;2.75;;;;;;;13.57;100.00;95632.78;5089882;28;20051;-77
2022/09/12 09:01:16;;;;;;;9.55;3.03;;;;;;;13.27;100.00;95626.00;5085957;28;20494;-77
2022/09/12 09:03:44;;;;;;;5.75;3.15;;;;;;;13.20;100.00;95623.69;5087878;28;20044;-77
2022/09/12 09:06:35;;;;;;;4.78;2.90;;;;;;;13.54;100.00;95625.44;5086971;28;20093;-77
2022/09/12 09:09:04;;;;;;;4.78;3.10;;;;;;;13.56;100.00;95623.31;5077618;28;20544;-76
2022/09/12 09:11:48;;;;;;;6.22;3.30;;;;;;;13.74;100.00;95613.00;5084950;28;20040;-78
2022/09/12 09:14:49;;;;;;;7.47;3.10;;;;;;;13.69;100.00;95612.00;5089967;28;20070;-78
2022/09/12 09:17:36;;;;;;;4.97;3.00;;;;;;;14.33;100.00;95613.41;5077365;28;20062;-77
2022/09/12 09:20:42;;;;;;;5.38;2.90;;;;;;;14.15;100.00;95607.06;5087814;28;20040;-77
2022/09/12 09:23:39;;;;;;;5.03;2.88;;;;;;;14.37;100.00;95609.88;5086596;28;20501;-77
2022/09/12 09:26:13;;;;;;;4.38;2.70;;;;;;;14.32;100.00;95607.34;5085346;28;20548;-77
2022/09/12 09:28:52;;;;;;;4.70;2.60;;;;;;;14.96;100.00;95598.81;5083643;28;20040;-78
2022/09/12 09:31:20;;;;;;;4.03;2.80;;;;;;;14.92;100.00;95597.81;5085388;28;20547;-77
2022/09/12 09:33:52;;;;;;;5.63;2.80;;;;;;;15.42;100.00;95595.22;5088426;28;20044;-77
2022/09/12 09:36:26;;;;;;;4.10;2.67;;;;;;;15.83;100.00;95587.47;5087353;28;20051;-77
2022/09/12 09:39:03;;;;;;;4.07;2.87;;;;;;;15.32;100.00;95595.44;5086838;28;20051;-77
2022/09/12 09:41:37;;;;;;;4.38;2.72;;;;;;;15.01;100.00;95604.03;5088075;28;20051;-78
2022/09/12 09:44:03;;;;;;;4.82;2.70;;;;;;;15.37;100.00;95597.19;5085762;28;20044;-77
2022/09/12 09:46:29;;;;;;;3.67;2.65;;;;;;;15.48;100.00;95603.84;5088722;28;20055;-77
2022/09/12 09:48:58;;;;;;;5.22;2.72;;;;;;;15.83;100.00;95592.78;5087518;28;20490;-77
2022/09/12 09:51:32;;;;;;;4.25;2.78;;;;;;;15.76;100.00;95588.66;5084899;28;20452;-78
2022/09/12 09:54:32;;;;;;;5.97;2.78;;;;;;;16.04;100.00;95585.91;5091291;28;20040;-78
2022/09/12 09:56:58;;;;;;;3.92;2.85;;;;;;;16.18;100.00;95587.75;5084761;28;20069;-78
2022/09/12 09:59:32;;;;;;;3.83;2.45;;;;;;;16.94;100.00;95581.56;5074489;28;20119;-78
2022/09/12 10:02:13;;;;;;;4.05;2.85;;;;;;;17.14;100.00;95586.31;5085666;28;20032;-78
2022/09/12 10:04:51;;;;;;;3.70;2.40;;;;;;;16.95;100.00;95588.41;5087005;28;20048;-78
2022/09/12 10:07:21;;;;;;;5.00;2.55;;;;;;;17.36;100.00;95587.28;5083525;28;20044;-78
2022/09/12 10:10:15;;;;;;;2.72;2.00;;;;;;;17.90;100.00;95588.88;5088119;28;20078;-77
2022/09/12 10:12:41;;;;;;;3.78;2.25;;;;;;;18.80;99.92;95588.06;5084263;28;20374;-78
2022/09/12 10:15:25;;;;;;;3.55;2.42;;;;;;;19.32;100.00;95580.94;5079942;28;20124;-77
2022/09/12 10:17:51;;;;;;;4.22;2.30;;;;;;;19.84;94.10;95575.28;5087220;28;20078;-78
2022/09/12 10:20:38;;;;;;;3.13;2.17;;;;;;;20.13;85.13;95570.94;5077850;28;20044;-77
2022/09/12 10:23:31;;;;;;;4.28;2.80;;;;;;;20.34;90.24;95580.78;5080760;28;20063;-78
2022/09/12 10:26:00;;;;;;;3.35;2.40;;;;;;;21.02;87.90;95572.31;5082672;28;20048;-78
2022/09/12 10:28:48;;;;;;;3.45;2.30;;;;;;;20.45;94.59;95576.56;5086700;28;20036;-77
2022/09/12 10:31:27;;;;;;;3.30;2.40;;;;;;;20.78;90.64;95559.72;5081011;28;20032;-77
2022/09/12 10:33:56;;;;;;;5.28;2.65;;;;;;;20.81;87.62;95567.06;5084555;28;20033;-77
2022/09/12 10:36:23;;;;;;;3.88;2.90;;;;;;;21.52;91.02;95557.00;5086995;28;20044;-78
2022/09/12 10:38:52;;;;;;;4.45;2.78;;;;;;;21.70;89.84;95562.09;5086554;28;20516;-79
2022/09/12 10:41:19;;;;;;;8.90;2.65;;;;;;;21.61;79.72;95560.31;5080443;28;20460;-77
2022/09/12 10:43:45;;;;;;;6.10;2.75;;;;;;;20.99;85.07;95566.84;5083394;28;20618;-79
2022/09/12 10:46:13;;;;;;;4.40;2.70;;;;;;;20.92;87.56;95562.06;5087819;28;20055;-79
2022/09/12 10:48:38;;;;;;;4.35;2.30;;;;;;;21.73;80.46;95566.78;5084487;28;20481;-77
2022/09/12 10:51:04;;;;;;;3.58;2.35;;;;;;;22.25;83.35;95565.09;5092616;28;20229;-79
2022/09/12 10:53:42;;;;;;;3.75;2.40;;;;;;;22.57;67.00;95555.22;5090979;28;20040;-79
2022/09/12 10:56:23;;;;;;;3.40;2.40;;;;;;;22.48;83.57;95554.59;5083028;28;20040;-78
2022/09/12 10:59:13;;;;;;;4.28;2.47;;;;;;;22.20;79.17;95552.72;5086920;28;20044;-77
2022/09/12 11:01:57;;;;;;;4.57;2.60;;;;;;;21.55;77.79;95555.53;5086173;28;20046;-78
2022/09/12 11:05:04;;;;;;;4.75;2.63;;;;;;;22.00;72.60;95553.72;5094814;28;20056;-78
2022/09/12 11:07:57;;;;;;;4.47;2.60;;;;;;;22.38;71.11;95552.44;5088576;28;20064;-79
2022/09/12 11:10:28;;;;;;;4.13;2.70;;;;;;;22.16;73.16;95546.50;5093964;28;20042;-80
2022/09/12 11:13:03;;;;;;;4.15;2.85;;;;;;;23.21;67.55;95549.06;5087579;28;20052;-80
2022/09/12 11:15:51;;;;;;;5.32;2.70;;;;;;;22.39;72.63;95548.66;5084631;28;20516;-77
2022/09/12 11:18:52;;;;;;;4.13;2.80;;;;;;;23.50;67.20;95542.38;5085134;28;20059;-78
2022/09/12 11:21:38;;;;;;;4.20;2.65;;;;;;;23.22;73.53;95550.63;5093463;28;20150;-78
2022/09/12 11:24:15;;;;;;;4.78;2.83;;;;;;;24.21;64.73;95550.31;5085939;28;20047;-78
2022/09/12 11:26:54;;;;;;;4.57;2.75;;;;;;;24.08;68.17;95546.22;5092601;28;20047;-78
2022/09/12 11:29:42;;;;;;;5.07;3.00;;;;;;;23.57;69.63;95539.84;5080113;28;20524;-78
2022/09/12 11:32:41;;;;;;;3.88;2.60;;;;;;;23.91;62.25;95537.47;5082929;28;20028;-78
2022/09/12 11:35:30;;;;;;;4.07;3.00;;;;;;;23.41;61.68;95536.44;5088954;28;20064;-78
2022/09/12 11:38:17;;;;;;;4.07;2.95;;;;;;;24.53;60.83;95528.59;5076607;28;20079;-79
2022/09/12 11:40:49;;;;;;;4.32;2.90;;;;;;;24.30;63.31;95526.66;5088845;28;20031;-79
2022/09/12 11:43:27;;;;;;;3.70;2.70;;;;;;;24.97;62.07;95530.06;5087889;28;20107;-78
2022/09/12 11:45:56;;;;;;;5.15;3.00;;;;;;;24.09;69.64;95528.97;5071694;28;20067;-79
2022/09/12 11:48:45;;;;;;;3.90;2.85;;;;;;;24.16;61.00;95534.47;5081405;28;20049;-79
2022/09/12 11:51:24;;;;;;;4.03;3.10;;;;;;;24.84;65.56;95532.97;5090939;28;20497;-78
2022/09/12 11:54:00;;;;;;;5.00;3.28;;;;;;;24.82;63.30;95534.47;5097497;28;20036;-77
2022/09/12 11:56:26;;;;;;;8.02;3.42;;;;;;;24.51;65.38;95531.63;5089612;28;20101;-78